Time;durP1;ratioP1;P1;durP2;ratioP2;P2;SDS_P1;SDS_P2;PMS_P1;PMS_P2;Temp;Humidity;BMP_temperature;BMP_pressure;BME280_temperature;BME280_humidity;BME280_pressure;Samples;Min_cycle;Max_cycle;Signal;HPM_P1;HPM_P2
2023/06/03 00:02:42;;;;;;;4.80;2.90;;;;;;;13.32;61.79;99413.34;223485;215;145849;-66
2023/06/03 00:07:45;;;;;;;7.50;2.90;;;;;;;13.26;61.75;99415.48;223417;181;139566;-63
2023/06/03 00:12:49;;;;;;;6.20;2.80;;;;;;;13.17;61.99;99422.27;223442;182;136430;-64
2023/06/03 00:17:53;;;;;;;6.30;3.10;;;;;;;13.08;61.99;99425.91;223526;182;145756;-65
2023/06/03 00:22:58;;;;;;;6.90;3.50;;;;;;;12.98;62.15;99428.16;223395;181;138059;-63
2023/06/03 00:33:38;;;;;;;5.60;3.40;;;;;;;12.87;62.43;99424.83;219600;193;666393;-68
2023/06/03 00:38:43;;;;;;;7.30;3.70;;;;;;;12.80;62.47;99428.44;221278;191;137276;-65
2023/06/03 00:43:46;;;;;;;6.70;3.60;;;;;;;12.70;62.43;99433.23;223813;181;143999;-63
2023/06/03 00:48:50;;;;;;;7.30;3.60;;;;;;;12.57;62.75;99432.81;223780;181;139158;-64
2023/06/03 00:53:53;;;;;;;5.50;3.70;;;;;;;12.45;62.85;99434.06;223789;181;136741;-65
2023/06/03 00:58:57;;;;;;;5.50;3.60;;;;;;;12.37;63.09;99441.56;223759;181;145131;-66
2023/06/03 01:04:09;;;;;;;8.90;3.90;;;;;;;12.29;63.33;99448.77;223936;214;138669;-65
2023/06/03 01:09:33;;;;;;;5.50;3.90;;;;;;;12.22;63.29;99456.56;223823;181;139283;-63
2023/06/03 01:14:45;;;;;;;7.00;3.80;;;;;;;12.14;63.68;99460.21;223770;181;143465;-64
2023/06/03 01:19:51;;;;;;;9.80;3.70;;;;;;;12.20;63.95;99466.45;223768;181;138909;-66
2023/06/03 01:25:05;;;;;;;6.20;3.90;;;;;;;12.36;63.81;99467.04;223743;182;136789;-64
2023/06/03 01:33:35;;;;;;;8.60;3.90;;;;;;;12.48;63.50;99467.73;220088;193;666636;-68
2023/06/03 01:38:38;;;;;;;6.90;3.90;;;;;;;12.38;63.39;99466.55;223750;183;136943;-63
2023/06/03 01:43:42;;;;;;;6.80;3.40;;;;;;;12.36;63.64;99471.49;223749;183;143448;-68
2023/06/03 01:48:45;;;;;;;6.30;3.80;;;;;;;12.32;63.68;99476.58;223757;181;139321;-65
2023/06/03 01:53:49;;;;;;;10.00;4.30;;;;;;;12.24;63.68;99474.71;223839;181;136268;-68
2023/06/03 01:58:53;;;;;;;5.90;3.50;;;;;;;12.19;63.77;99477.52;223822;180;143355;-65
2023/06/03 02:03:56;;;;;;;8.30;3.70;;;;;;;12.17;63.94;99475.55;223916;181;139068;-66
2023/06/03 02:09:00;;;;;;;5.10;3.70;;;;;;;12.14;63.91;99479.46;223986;180;136546;-65
2023/06/03 02:14:03;;;;;;;7.10;3.50;;;;;;;12.05;63.78;99481.73;223878;181;143351;-68
2023/06/03 02:19:17;;;;;;;6.00;3.70;;;;;;;11.97;63.83;99485.30;223981;181;139032;-70
2023/06/03 02:24:22;;;;;;;6.90;3.30;;;;;;;11.87;64.26;99489.83;223792;180;136512;-69
2023/06/03 02:29:27;;;;;;;6.70;3.40;;;;;;;11.88;64.73;99495.09;223840;180;145010;-66
2023/06/03 02:34:31;;;;;;;7.50;3.70;;;;;;;11.95;64.66;99499.65;223768;181;139880;-66
2023/06/03 02:39:34;;;;;;;7.00;3.60;;;;;;;12.03;64.50;99500.58;223721;181;136851;-69
2023/06/03 02:44:38;;;;;;;10.50;3.90;;;;;;;12.24;63.92;99499.84;223729;181;145602;-66
2023/06/03 02:49:43;;;;;;;7.00;3.60;;;;;;;12.28;63.54;99504.14;223788;181;139325;-71
2023/06/03 02:54:47;;;;;;;6.30;3.20;;;;;;;12.31;63.23;99508.12;223804;181;136430;-74
2023/06/03 02:59:50;;;;;;;7.40;3.70;;;;;;;12.27;62.89;99506.73;223826;181;145495;-75
2023/06/03 03:04:54;;;;;;;6.70;3.90;;;;;;;12.24;62.69;99513.35;223700;182;139035;-66
2023/06/03 03:09:57;;;;;;;6.80;4.10;;;;;;;12.17;62.65;99511.65;223724;181;136353;-64
2023/06/03 03:15:01;;;;;;;8.20;4.00;;;;;;;12.14;62.67;99520.88;223685;181;145707;-66
2023/06/03 03:20:06;;;;;;;7.40;4.20;;;;;;;12.15;62.69;99524.24;223775;181;138387;-67
2023/06/03 03:25:10;;;;;;;6.90;4.00;;;;;;;12.11;62.90;99530.70;223712;181;138315;-65
2023/06/03 03:30:14;;;;;;;6.60;3.90;;;;;;;12.03;62.88;99534.90;223791;181;145143;-61
2023/06/03 03:35:26;;;;;;;5.90;3.50;;;;;;;11.98;62.96;99542.10;223670;181;138938;-64
2023/06/03 03:40:36;;;;;;;9.40;4.00;;;;;;;11.96;62.96;99543.49;223648;181;137183;-65
2023/06/03 03:45:39;;;;;;;197.10;156.00;;;;;;;11.96;62.84;99548.31;223706;181;145115;-64
2023/06/03 03:50:53;;;;;;;122.30;91.20;;;;;;;12.01;62.66;99551.34;223687;181;138966;-62
2023/06/03 03:56:04;;;;;;;55.40;42.90;;;;;;;12.05;62.48;99559.33;223894;181;136722;-64
2023/06/03 04:01:18;;;;;;;32.20;22.30;;;;;;;12.06;62.39;99557.80;223206;181;146257;-63
2023/06/03 04:06:38;;;;;;;8.70;5.40;;;;;;;12.10;62.44;99558.81;223740;181;138546;-66
2023/06/03 04:11:44;;;;;;;12.30;7.70;;;;;;;12.16;61.93;99562.40;223725;182;137855;-63
2023/06/03 04:16:58;;;;;;;6.50;4.40;;;;;;;12.24;61.46;99567.06;223756;181;146085;-62
2023/06/03 04:22:10;;;;;;;6.30;3.70;;;;;;;12.27;61.58;99565.61;223659;181;139526;-64
2023/06/03 04:27:14;;;;;;;7.50;4.10;;;;;;;12.32;61.74;99573.54;223788;181;136289;-62
2023/06/03 04:32:18;;;;;;;108.00;81.90;;;;;;;12.36;61.80;99574.02;223612;181;145354;-65
2023/06/03 04:37:23;;;;;;;8.80;6.10;;;;;;;12.43;62.03;99576.91;223709;181;138764;-65
2023/06/03 04:42:30;;;;;;;9.00;4.50;;;;;;;12.50;61.78;99586.12;223763;181;136612;-64
2023/06/03 04:47:35;;;;;;;7.00;3.60;;;;;;;12.62;61.53;99584.71;223769;181;147023;-64
2023/06/03 04:52:38;;;;;;;9.30;3.90;;;;;;;12.74;61.04;99590.34;223745;181;138404;-65
2023/06/03 04:57:45;;;;;;;8.70;3.60;;;;;;;12.82;60.68;99592.33;223684;181;137552;-63
2023/06/03 05:02:56;;;;;;;7.30;3.10;;;;;;;12.94;60.15;99591.27;223716;181;145331;-62
2023/06/03 05:08:06;;;;;;;14.90;4.60;;;;;;;13.04;58.88;99598.27;223643;181;138337;-63
2023/06/03 05:13:21;;;;;;;80.80;52.00;;;;;;;13.17;58.41;99600.98;223769;181;137726;-68
2023/06/03 05:18:25;;;;;;;15.00;7.30;;;;;;;13.29;57.70;99599.89;223654;181;145794;-64
2023/06/03 05:23:28;;;;;;;15.30;3.90;;;;;;;13.35;56.76;99603.80;223669;181;139269;-66
2023/06/03 05:33:32;;;;;;;8.30;2.80;;;;;;;13.45;55.98;99603.35;219708;191;666377;-65
2023/06/03 05:38:40;;;;;;;7.00;2.20;;;;;;;13.48;55.62;99608.48;223017;185;136304;-68
2023/06/03 05:43:45;;;;;;;6.20;2.30;;;;;;;13.52;54.99;99613.38;223600;183;143161;-65
2023/06/03 05:48:48;;;;;;;7.40;3.00;;;;;;;13.55;54.86;99615.35;223652;183;139258;-65
2023/06/03 05:53:52;;;;;;;6.00;2.80;;;;;;;13.63;54.95;99619.84;223669;183;136047;-64
2023/06/03 05:58:58;;;;;;;9.50;3.10;;;;;;;13.71;54.96;99618.91;223668;183;143681;-65
2023/06/03 06:04:10;;;;;;;7.00;2.80;;;;;;;13.76;54.48;99618.27;223723;183;138153;-68
2023/06/03 06:09:13;;;;;;;7.70;2.50;;;;;;;13.83;54.40;99619.73;223730;182;135944;-67
2023/06/03 06:14:17;;;;;;;6.00;2.40;;;;;;;13.91;54.27;99617.25;223788;182;143232;-69
2023/06/03 06:19:34;;;;;;;7.90;2.50;;;;;;;13.95;54.05;99621.25;222314;183;138306;-78
2023/06/03 06:24:38;;;;;;;4.10;2.20;;;;;;;13.99;53.73;99626.16;223675;182;136625;-69
2023/06/03 06:29:41;;;;;;;6.30;3.00;;;;;;;14.01;53.48;99629.41;223726;182;145266;-65
2023/06/03 06:34:45;;;;;;;6.30;3.00;;;;;;;14.07;53.57;99632.40;223729;182;138584;-65
2023/06/03 06:39:53;;;;;;;5.10;2.60;;;;;;;14.11;53.04;99634.61;223732;183;138290;-69
2023/06/03 06:45:09;;;;;;;7.50;3.10;;;;;;;14.18;52.75;99641.13;223703;183;148989;-67
2023/06/03 06:50:34;;;;;;;10.80;2.40;;;;;;;14.21;52.62;99634.16;223672;182;138821;-64
2023/06/03 06:55:47;;;;;;;8.10;3.00;;;;;;;14.30;53.24;99635.33;223608;182;137134;-66
2023/06/03 07:00:51;;;;;;;4.50;2.60;;;;;;;14.44;52.76;99631.35;223679;183;145196;-70
2023/06/03 07:05:55;;;;;;;7.60;3.30;;;;;;;14.50;52.70;99632.05;223763;181;139649;-66
2023/06/03 07:11:02;;;;;;;;;;;;;;;14.61;52.54;99634.67;223713;181;136399;-69
2023/06/03 07:16:11;;;;;;;5.70;2.80;;;;;;;14.65;52.04;99635.59;223853;181;145921;-63
2023/06/03 07:21:16;;;;;;;5.30;2.80;;;;;;;14.75;52.10;99635.67;223819;181;138377;-62
2023/06/03 07:26:19;;;;;;;10.30;2.60;;;;;;;14.79;51.25;99642.55;223776;182;136224;-64
2023/06/03 07:33:37;;;;;;;6.90;2.90;;;;;;;14.90;51.13;99643.00;221634;193;665481;-66
2023/06/03 07:38:59;;;;;;;4.60;2.60;;;;;;;14.98;50.37;99644.98;223632;184;136355;-68
2023/06/03 07:44:07;;;;;;;5.50;2.70;;;;;;;15.04;49.41;99645.06;223669;183;144098;-66
2023/06/03 07:49:16;;;;;;;6.40;2.30;;;;;;;15.10;49.44;99648.70;223633;182;138832;-65
2023/06/03 07:54:19;;;;;;;5.50;2.30;;;;;;;15.18;49.11;99654.61;223952;181;136474;-65
2023/06/03 07:59:27;;;;;;;6.40;2.50;;;;;;;15.23;48.59;99656.02;223893;181;143868;-67
2023/06/03 08:04:33;;;;;;;7.60;2.30;;;;;;;15.38;48.48;99652.80;223873;181;139577;-69
2023/06/03 08:09:37;;;;;;;7.10;2.50;;;;;;;15.44;47.04;99652.20;224141;180;136316;-71
2023/06/03 08:14:41;;;;;;;114.70;87.80;;;;;;;15.54;47.34;99651.34;223762;181;143581;-64
2023/06/03 08:19:45;;;;;;;11.20;5.10;;;;;;;15.74;47.86;99653.81;223713;180;138144;-65
2023/06/03 08:24:49;;;;;;;11.80;3.00;;;;;;;15.90;48.01;99650.48;223928;180;136639;-68
2023/06/03 08:29:52;;;;;;;89.20;66.80;;;;;;;16.08;46.89;99661.27;223881;180;146905;-65
2023/06/03 08:34:55;;;;;;;6.80;3.70;;;;;;;16.26;46.75;99660.99;223794;181;138384;-67
2023/06/03 08:40:00;;;;;;;7.20;2.50;;;;;;;16.38;46.29;99657.41;223778;180;137429;-66
2023/06/03 08:45:05;;;;;;;;;;;;;;;16.59;45.61;99658.31;223646;181;146959;-67
2023/06/03 08:50:10;;;;;;;8.00;2.40;;;;;;;16.72;44.62;99661.27;223703;181;138430;-67
2023/06/03 08:55:16;;;;;;;7.20;2.20;;;;;;;16.90;44.57;99661.34;223620;182;137099;-68
2023/06/03 09:00:26;;;;;;;6.80;1.90;;;;;;;17.18;43.03;99664.84;223603;181;145270;-68
2023/06/03 09:05:33;;;;;;;5.60;2.30;;;;;;;17.31;40.64;99668.69;223705;180;138244;-65
2023/06/03 09:10:36;;;;;;;;;;;;;;;17.22;41.16;99666.27;223719;181;136843;-71
2023/06/03 09:15:42;;;;;;;3.20;1.40;;;;;;;17.28;39.29;99665.30;223811;181;145297;-66
2023/06/03 09:20:45;;;;;;;7.80;1.80;;;;;;;17.39;38.60;99660.33;223694;181;139388;-64
2023/06/03 09:25:49;;;;;;;4.50;1.80;;;;;;;17.77;40.24;99658.66;223759;182;136805;-63
2023/06/03 09:30:53;;;;;;;73.00;47.60;;;;;;;18.18;38.73;99653.88;223650;181;145587;-64
2023/06/03 09:36:11;;;;;;;8.10;2.60;;;;;;;18.34;37.99;99644.98;223658;181;138447;-63
2023/06/03 09:41:17;;;;;;;9.10;2.40;;;;;;;18.39;37.59;99642.94;223720;181;136491;-62
2023/06/03 09:46:21;;;;;;;7.20;2.30;;;;;;;18.49;37.38;99641.58;223723;181;145440;-63
2023/06/03 09:51:42;;;;;;;5.10;1.70;;;;;;;18.60;36.70;99633.70;223798;180;138873;-62
2023/06/03 09:56:51;;;;;;;7.10;1.90;;;;;;;18.75;36.99;99636.29;223722;181;136036;-63
2023/06/03 10:01:54;;;;;;;5.00;1.50;;;;;;;18.79;36.20;99639.35;223741;181;145297;-62
2023/06/03 10:07:13;;;;;;;6.60;1.90;;;;;;;18.89;36.26;99632.59;223712;181;138716;-63
2023/06/03 10:12:37;;;;;;;93.80;67.40;;;;;;;19.06;36.20;99631.46;223714;181;136516;-62
2023/06/03 10:17:45;;;;;;;14.40;7.40;;;;;;;19.50;39.16;99630.39;223784;181;145349;-60
2023/06/03 10:22:49;;;;;;;9.90;6.70;;;;;;;19.90;36.87;99626.95;223653;181;138437;-63
2023/06/03 10:27:52;;;;;;;8.80;5.10;;;;;;;20.05;35.46;99629.79;223731;181;136787;-63
2023/06/03 10:32:58;;;;;;;4.60;1.50;;;;;;;20.16;33.98;99622.75;223677;181;147104;-63
2023/06/03 10:38:03;;;;;;;3.00;0.90;;;;;;;20.18;32.12;99617.33;223710;181;140840;-62
2023/06/03 10:43:10;;;;;;;6.90;4.60;;;;;;;20.17;31.16;99608.31;223745;181;138286;-63
2023/06/03 10:48:16;;;;;;;3.50;1.30;;;;;;;20.28;31.90;99606.67;223672;181;146655;-63
2023/06/03 10:53:55;;;;;;;3.10;1.20;;;;;;;20.38;31.33;99604.31;223771;181;139859;-63
2023/06/03 10:59:07;;;;;;;5.30;1.30;;;;;;;20.49;30.83;99600.44;223605;181;137130;-63
2023/06/03 11:04:15;;;;;;;4.30;1.30;;;;;;;20.70;31.19;99593.02;223666;181;145665;-64
2023/06/03 11:09:40;;;;;;;3.90;1.20;;;;;;;20.80;30.54;99596.23;223822;181;139023;-62
2023/06/03 11:14:48;;;;;;;2.40;1.10;;;;;;;20.87;30.48;99593.42;223783;181;138911;-63
2023/06/03 11:19:54;;;;;;;4.00;1.50;;;;;;;20.97;30.00;99588.10;223744;181;145212;-63
2023/06/03 11:25:01;;;;;;;4.10;1.10;;;;;;;21.18;30.10;99589.35;223681;181;140749;-63
2023/06/03 11:30:07;;;;;;;2.30;0.90;;;;;;;21.35;29.66;99576.89;223729;181;137586;-62
2023/06/03 11:35:10;;;;;;;6.20;1.40;;;;;;;21.44;29.38;99579.55;223657;181;145250;-63
2023/06/03 11:40:19;;;;;;;3.80;1.40;;;;;;;21.69;29.35;99576.56;223773;181;138916;-63
2023/06/03 11:45:27;;;;;;;2.80;1.00;;;;;;;21.84;27.99;99573.27;223677;181;136577;-62
2023/06/03 11:50:34;;;;;;;4.20;1.20;;;;;;;21.97;27.61;99571.77;223795;181;146956;-64
2023/06/03 11:55:37;;;;;;;3.60;1.20;;;;;;;22.24;28.00;99573.36;223838;181;138106;-63
2023/06/03 12:00:40;;;;;;;13.70;7.10;;;;;;;22.52;28.78;99562.73;223634;181;136547;-63
2023/06/03 12:05:54;;;;;;;7.30;3.00;;;;;;;22.60;30.06;99557.33;223730;181;145869;-63
2023/06/03 12:10:57;;;;;;;2.60;1.60;;;;;;;22.77;29.49;99555.60;223771;181;138435;-62
2023/06/03 12:16:00;;;;;;;97.80;84.60;;;;;;;22.89;28.90;99550.52;223783;181;137091;-63
2023/06/03 12:21:22;;;;;;;10.60;5.80;;;;;;;22.99;27.90;99550.21;223797;181;149060;-65
2023/06/03 12:26:26;;;;;;;3.20;1.50;;;;;;;23.12;27.59;99546.69;223769;181;138662;-64
2023/06/03 12:33:44;;;;;;;32.10;23.40;;;;;;;23.14;27.61;99544.48;221689;189;666621;-63
2023/06/03 12:38:58;;;;;;;4.30;1.50;;;;;;;23.39;27.76;99544.98;223649;183;136796;-64
2023/06/03 12:44:03;;;;;;;3.40;1.30;;;;;;;23.66;27.36;99532.73;223594;183;144999;-63
2023/06/03 12:49:13;;;;;;;5.20;1.90;;;;;;;23.83;27.06;99532.51;223376;183;139243;-63
2023/06/03 12:54:17;;;;;;;4.40;1.40;;;;;;;24.08;26.93;99531.77;223529;182;136365;-63
2023/06/03 12:59:27;;;;;;;2.70;1.20;;;;;;;24.24;26.33;99524.70;223428;182;144018;-63
2023/06/03 13:04:33;;;;;;;89.10;78.60;;;;;;;24.33;26.29;99521.50;223346;182;139461;-64
2023/06/03 13:09:37;;;;;;;6.00;3.70;;;;;;;24.45;26.21;99518.23;223460;216;137329;-62
2023/06/03 13:14:40;;;;;;;5.70;1.40;;;;;;;24.66;25.83;99512.30;223444;182;143325;-63
2023/06/03 13:19:43;;;;;;;5.50;1.30;;;;;;;24.74;25.51;99510.39;223470;182;138995;-62
2023/06/03 13:24:46;;;;;;;2.80;1.20;;;;;;;24.95;25.49;99506.52;223430;182;136198;-63
2023/06/03 13:29:52;;;;;;;5.10;1.10;;;;;;;25.19;25.10;99499.99;223440;183;147710;-63
2023/06/03 13:34:55;;;;;;;2.70;1.20;;;;;;;25.31;24.60;99496.64;223345;183;139080;-63
2023/06/03 13:39:59;;;;;;;5.20;1.30;;;;;;;25.42;24.64;99500.08;223476;216;137584;-64
2023/06/03 13:45:06;;;;;;;13.80;7.00;;;;;;;25.56;24.48;99496.59;223419;217;145269;-64
2023/06/03 13:50:10;;;;;;;5.60;2.10;;;;;;;25.50;24.03;99497.98;223438;183;138347;-63
2023/06/03 13:55:13;;;;;;;5.30;1.50;;;;;;;25.56;24.44;99498.39;223457;183;137145;-63
2023/06/03 14:00:17;;;;;;;3.20;1.40;;;;;;;25.60;24.31;99486.90;223420;183;145450;-62
2023/06/03 14:05:21;;;;;;;3.60;1.40;;;;;;;25.57;23.73;99485.96;223460;183;140573;-63
2023/06/03 14:10:30;;;;;;;22.40;15.40;;;;;;;25.39;23.48;99481.79;223487;209;138130;-64
2023/06/03 14:15:35;;;;;;;9.90;5.20;;;;;;;25.23;23.75;99478.39;223524;209;146248;-61
2023/06/03 14:20:38;;;;;;;7.80;1.70;;;;;;;25.02;24.01;99476.16;223370;184;138929;-63
2023/06/03 14:25:41;;;;;;;7.30;1.60;;;;;;;24.69;24.66;99475.52;223447;183;137087;-63
2023/06/03 14:36:22;;;;;;;25.00;13.10;;;;;;;24.26;25.60;99451.09;219743;193;666430;-64
2023/06/03 14:41:27;;;;;;;20.60;15.50;;;;;;;23.89;26.02;99450.24;223400;183;136891;-65
2023/06/03 14:46:30;;;;;;;15.10;11.50;;;;;;;23.53;26.28;99448.25;223405;216;143376;-62
2023/06/03 14:51:35;;;;;;;10.10;5.50;;;;;;;23.17;27.30;99443.85;223499;193;138581;-63
2023/06/03 14:56:51;;;;;;;4.30;3.40;;;;;;;22.84;28.00;99439.21;223451;182;137155;-64
2023/06/03 15:01:54;;;;;;;7.60;2.30;;;;;;;22.57;28.65;99438.18;223478;182;144067;-62
2023/06/03 15:06:57;;;;;;;175.40;105.00;;;;;;;22.31;27.79;99435.59;223474;182;138853;-62
2023/06/03 15:12:01;;;;;;;16.70;8.50;;;;;;;22.10;27.96;99435.60;223376;182;137122;-64
2023/06/03 15:17:04;;;;;;;9.50;2.50;;;;;;;21.96;29.03;99429.51;223361;182;144404;-63
2023/06/03 15:22:07;;;;;;;4.20;2.10;;;;;;;21.83;28.81;99439.16;223445;182;138398;-63
2023/06/03 15:27:11;;;;;;;5.30;1.40;;;;;;;21.74;29.21;99436.05;223425;215;136510;-63
2023/06/03 15:32:14;;;;;;;3.00;1.60;;;;;;;21.66;29.15;99430.26;223392;184;145268;-62
2023/06/03 15:37:17;;;;;;;6.20;2.10;;;;;;;21.51;29.25;99427.41;223467;199;138551;-63
2023/06/03 15:42:21;;;;;;;2.50;1.30;;;;;;;21.35;28.80;99426.08;223444;182;136951;-62
2023/06/03 15:47:25;;;;;;;2.30;1.20;;;;;;;21.18;28.93;99417.52;223415;183;145307;-62
2023/06/03 15:52:29;;;;;;;4.80;1.30;;;;;;;21.09;29.40;99415.48;223336;217;140901;-62
2023/06/03 15:57:32;;;;;;;10.60;1.70;;;;;;;21.02;29.13;99412.61;223467;216;138642;-63
2023/06/03 16:02:36;;;;;;;12.80;7.70;;;;;;;20.97;30.23;99413.85;223527;216;146041;-64
2023/06/03 16:07:39;;;;;;;4.00;3.20;;;;;;;20.94;30.39;99412.53;223473;184;139950;-61
2023/06/03 16:12:43;;;;;;;3.80;1.90;;;;;;;20.92;31.32;99411.26;223428;182;136461;-63
2023/06/03 16:17:46;;;;;;;3.70;1.70;;;;;;;20.86;31.43;99407.30;223534;181;145403;-61
2023/06/03 16:22:50;;;;;;;2.20;1.20;;;;;;;20.82;31.08;99413.20;223538;181;139284;-64
2023/06/03 16:27:53;;;;;;;4.20;1.30;;;;;;;20.73;31.18;99409.39;223600;204;137431;-63
2023/06/03 16:32:56;;;;;;;3.80;1.30;;;;;;;20.62;31.55;99409.69;223512;182;146655;-61
2023/06/03 16:38:00;;;;;;;1.70;0.90;;;;;;;20.54;32.37;99408.31;223542;181;138651;-61
2023/06/03 16:43:03;;;;;;;8.00;1.20;;;;;;;20.49;32.28;99410.04;223668;182;136851;-61
2023/06/03 16:48:06;;;;;;;57.70;39.40;;;;;;;20.42;31.70;99414.30;223441;215;145908;-65
2023/06/03 16:53:10;;;;;;;5.80;3.10;;;;;;;20.41;32.57;99409.02;223645;181;138335;-64
2023/06/03 16:58:13;;;;;;;5.90;1.50;;;;;;;20.38;32.62;99410.56;223599;214;139821;-64
2023/06/03 17:03:16;;;;;;;15.20;1.40;;;;;;;20.33;32.06;99412.13;223514;181;145210;-64
2023/06/03 17:08:19;;;;;;;6.90;1.30;;;;;;;20.25;31.73;99412.38;223503;181;139071;-64
2023/06/03 17:13:23;;;;;;;5.10;1.50;;;;;;;20.19;31.45;99411.33;223502;185;136789;-63
2023/06/03 17:18:30;;;;;;;3.50;1.20;;;;;;;20.14;32.88;99412.73;223533;181;146222;-66
2023/06/03 17:23:33;;;;;;;3.00;1.30;;;;;;;20.09;32.84;99406.86;223499;181;138779;-66
2023/06/03 17:28:37;;;;;;;4.90;1.20;;;;;;;20.06;32.51;99411.29;223516;187;137554;-66
2023/06/03 17:33:40;;;;;;;7.20;1.30;;;;;;;20.01;32.36;99409.95;223540;208;145057;-65
2023/06/03 17:38:43;;;;;;;5.20;1.30;;;;;;;19.96;32.74;99410.25;223540;182;138044;-61
2023/06/03 17:43:47;;;;;;;32.90;27.80;;;;;;;19.93;31.90;99411.27;223557;181;136386;-63
2023/06/03 17:48:50;;;;;;;10.30;7.00;;;;;;;19.89;32.52;99408.44;223480;181;145158;-64
2023/06/03 17:53:54;;;;;;;4.50;2.40;;;;;;;19.83;31.94;99408.06;223473;181;139819;-62
2023/06/03 17:58:57;;;;;;;4.40;2.00;;;;;;;19.75;32.00;99405.88;223457;181;137097;-63
2023/06/03 18:04:01;;;;;;;278.40;191.80;;;;;;;19.67;32.77;99408.38;223686;181;149222;-65
2023/06/03 18:09:04;;;;;;;15.10;11.30;;;;;;;19.64;32.86;99416.96;223582;182;138241;-64
2023/06/03 18:14:07;;;;;;;14.20;10.20;;;;;;;19.55;33.05;99421.67;223494;181;137413;-62
2023/06/03 18:19:15;;;;;;;3.60;2.40;;;;;;;19.41;32.98;99419.77;223485;181;145270;-62
2023/06/03 18:24:23;;;;;;;5.10;2.00;;;;;;;19.21;33.72;99424.25;223562;181;139378;-65
2023/06/03 18:29:27;;;;;;;5.70;2.20;;;;;;;19.05;34.04;99428.27;223450;182;138652;-65
2023/06/03 18:34:30;;;;;;;3.20;1.50;;;;;;;18.88;34.17;99428.38;223521;215;145119;-62
2023/06/03 18:39:33;;;;;;;6.70;1.50;;;;;;;18.72;34.52;99438.58;223568;215;138741;-62
2023/06/03 18:44:36;;;;;;;4.60;1.60;;;;;;;18.58;34.91;99445.71;223558;182;139193;-66
2023/06/03 18:49:40;;;;;;;7.30;1.70;;;;;;;18.49;35.47;99451.75;223507;181;145336;-62
2023/06/03 18:54:44;;;;;;;3.80;1.80;;;;;;;18.42;35.77;99448.77;223426;185;138777;-62
2023/06/03 18:59:48;;;;;;;5.40;2.00;;;;;;;18.36;36.38;99453.30;223509;181;136938;-62
2023/06/03 19:04:51;;;;;;;6.70;1.80;;;;;;;18.26;36.85;99453.80;223513;181;145688;-66
2023/06/03 19:09:54;;;;;;;7.20;2.10;;;;;;;18.26;37.14;99459.35;223472;182;138667;-63
2023/06/03 19:14:58;;;;;;;9.00;1.50;;;;;;;18.30;37.77;99464.23;223514;181;137627;-62
2023/06/03 19:20:04;;;;;;;8.60;2.50;;;;;;;18.38;37.79;99466.73;223445;181;148031;-63
2023/06/03 19:25:09;;;;;;;13.90;2.70;;;;;;;18.37;38.09;99468.86;223562;181;139635;-62
2023/06/03 19:30:12;;;;;;;7.20;2.50;;;;;;;18.34;38.20;99470.14;223328;181;137573;-67
2023/06/03 19:35:15;;;;;;;5.50;2.20;;;;;;;18.28;38.38;99474.48;221351;182;146017;-62
2023/06/03 19:40:19;;;;;;;4.80;2.10;;;;;;;18.21;38.22;99478.98;223672;215;139410;-62
2023/06/03 19:45:22;;;;;;;139.60;110.00;;;;;;;18.16;38.24;99481.44;222447;181;137110;-61
2023/06/03 19:50:25;;;;;;;15.60;7.20;;;;;;;17.94;38.01;99480.96;221756;182;145860;-65
2023/06/03 19:55:29;;;;;;;11.50;3.70;;;;;;;17.58;37.86;99486.50;223552;181;138533;-63
2023/06/03 20:00:44;;;;;;;11.80;3.30;;;;;;;17.28;38.36;99487.96;223644;181;137753;-64
2023/06/03 20:05:47;;;;;;;5.70;2.80;;;;;;;17.04;38.57;99494.73;223695;181;145338;-63
2023/06/03 20:10:50;;;;;;;5.50;2.30;;;;;;;16.85;38.79;99494.34;223616;181;138404;-64
2023/06/03 20:15:54;;;;;;;4.50;2.50;;;;;;;16.71;38.80;99496.14;223744;181;137742;-64
2023/06/03 20:20:58;;;;;;;7.90;2.50;;;;;;;16.61;38.83;99501.75;223727;181;146563;-65
2023/06/03 20:26:01;;;;;;;7.00;2.50;;;;;;;16.52;39.07;99503.55;223424;181;138223;-65
2023/06/03 20:31:07;;;;;;;4.00;2.40;;;;;;;16.44;39.34;99506.88;223660;181;136898;-63
2023/06/03 20:36:10;;;;;;;6.70;2.50;;;;;;;16.37;39.78;99507.80;223684;181;144246;-62
2023/06/03 20:41:14;;;;;;;10.00;2.70;;;;;;;16.30;40.06;99514.40;223691;181;138266;-63
2023/06/03 20:46:18;;;;;;;4.70;2.80;;;;;;;16.24;40.34;99513.11;223436;181;137086;-63
2023/06/03 20:51:21;;;;;;;5.30;2.60;;;;;;;16.18;40.20;99515.91;223614;181;145444;-63
2023/06/03 20:56:25;;;;;;;5.20;2.70;;;;;;;16.12;40.20;99514.58;223580;181;139436;-63
2023/06/03 21:01:29;;;;;;;8.00;2.60;;;;;;;16.07;40.39;99516.20;223716;181;137151;-63
2023/06/03 21:06:37;;;;;;;5.30;2.40;;;;;;;16.02;40.89;99515.16;223691;181;145368;-63
2023/06/03 21:11:42;;;;;;;5.50;2.70;;;;;;;15.98;41.01;99513.51;222790;181;138538;-64
2023/06/03 21:16:45;;;;;;;5.00;2.50;;;;;;;15.91;40.92;99514.23;223742;181;137318;-63
2023/06/03 21:21:48;;;;;;;5.00;2.90;;;;;;;15.84;41.09;99517.77;223843;181;146141;-66
2023/06/03 21:26:52;;;;;;;5.30;2.60;;;;;;;15.77;41.29;99513.48;223532;181;139260;-64
2023/06/03 23:45:29;;;;;;;3.90;2.10;;;;;;;13.72;48.11;99500.95;221947;193;666565;-62
2023/06/03 23:50:32;;;;;;;5.40;2.00;;;;;;;13.70;48.54;99502.37;223783;181;136558;-63
2023/06/03 23:55:35;;;;;;;5.30;2.20;;;;;;;13.68;48.56;99503.53;223961;180;144306;-61
